Time;durP1;ratioP1;P1;durP2;ratioP2;P2;SDS_P1;SDS_P2;PMS_P1;PMS_P2;Temp;Humidity;BMP_temperature;BMP_pressure;BME280_temperature;BME280_humidity;BME280_pressure;Samples;Min_cycle;Max_cycle;Signal;HPM_P1;HPM_P2
2022/04/15 00:00:49;;;;;;;33.23;14.23;;;10.40;99.90;;;;;;4414347;28;658241;-65
2022/04/15 00:03:37;;;;;;;32.77;13.87;;;10.30;1.00;;;;;;4387872;28;659786;-66
2022/04/15 00:06:24;;;;;;;35.87;14.43;;;10.60;99.90;;;;;;4403111;28;658689;-66
2022/04/15 00:09:11;;;;;;;28.53;11.93;;;10.70;99.90;;;;;;4389611;28;660629;-66
2022/04/15 00:12:06;;;;;;;27.77;12.53;;;10.60;99.90;;;;;;4424699;28;661149;-66
2022/04/15 00:14:54;;;;;;;31.53;12.03;;;10.80;99.90;;;;;;4394218;28;660179;-66
2022/04/15 00:17:41;;;;;;;24.60;11.70;;;10.70;99.90;;;;;;4390907;28;659701;-66
2022/04/15 00:20:29;;;;;;;30.70;12.70;;;10.90;99.10;;;;;;4422539;28;661054;-66
2022/04/15 00:23:18;;;;;;;25.40;11.07;;;11.20;97.60;;;;;;4394339;28;659896;-65
2022/04/15 00:26:05;;;;;;;28.07;12.20;;;11.60;99.90;;;;;;4407195;28;659669;-65
2022/04/15 00:28:54;;;;;;;26.53;13.20;;;11.80;99.90;;;;;;4406311;28;661460;-66
2022/04/15 00:31:41;;;;;;;30.42;13.45;;;11.80;95.50;;;;;;4386235;28;660378;-65
2022/04/15 00:34:29;;;;;;;24.73;12.80;;;11.90;45.30;;;;;;4416766;28;660479;-65
2022/04/15 00:37:17;;;;;;;34.77;13.40;;;11.70;44.40;;;;;;4390739;28;659868;-66
2022/04/15 00:40:07;;;;;;;33.53;12.83;;;11.60;35.20;;;;;;4406787;28;659915;-66
2022/04/15 00:42:54;;;;;;;31.10;12.73;;;11.50;32.00;;;;;;4392576;28;659978;-66
2022/04/15 00:45:43;;;;;;;36.80;13.57;;;11.50;26.60;;;;;;4390015;28;659745;-66
2022/04/15 00:48:30;;;;;;;28.20;13.27;;;11.50;34.10;;;;;;4402896;28;660324;-66
2022/04/15 00:51:18;;;;;;;32.10;13.73;;;11.50;52.30;;;;;;4410426;28;660804;-66
2022/04/15 00:54:05;;;;;;;29.23;13.67;;;11.40;50.20;;;;;;4410912;28;659547;-66
2022/04/15 00:56:54;;;;;;;37.10;13.63;;;11.40;91.30;;;;;;4411552;28;660686;-66
2022/04/15 00:59:42;;;;;;;35.77;14.30;;;11.30;83.20;;;;;;4403308;28;659973;-65
2022/04/15 01:02:31;;;;;;;37.60;14.63;;;11.40;79.90;;;;;;4411231;28;659819;-66
2022/04/15 01:05:18;;;;;;;30.33;14.17;;;11.30;90.70;;;;;;4393776;28;660672;-66
2022/04/15 01:08:08;;;;;;;32.53;14.40;;;11.20;99.90;;;;;;4401495;28;659418;-66
2022/04/15 01:10:57;;;;;;;35.37;13.77;;;11.10;99.90;;;;;;4387771;28;660151;-66
2022/04/15 01:13:44;;;;;;;31.57;13.20;;;11.20;99.90;;;;;;4415930;28;659562;-66
2022/04/15 01:16:32;;;;;;;33.70;13.50;;;11.10;99.90;;;;;;4397227;28;659547;-66
2022/04/15 01:19:22;;;;;;;34.03;14.43;;;11.20;99.90;;;;;;4415717;28;659959;-66
2022/04/15 01:22:09;;;;;;;31.90;13.40;;;11.20;99.90;;;;;;4417435;28;659957;-66
2022/04/15 01:24:58;;;;;;;34.93;13.73;;;11.00;99.90;;;;;;4401420;28;660512;-66
2022/04/15 01:27:46;;;;;;;32.63;12.60;;;11.00;99.90;;;;;;4397923;28;659708;-66
2022/04/15 01:30:34;;;;;;;28.90;12.43;;;10.90;99.90;;;;;;4426581;28;660797;-66
2022/04/15 01:33:21;;;;;;;29.50;13.93;;;11.00;99.90;;;;;;4406831;28;659523;-66
2022/04/15 01:36:08;;;;;;;31.10;13.50;;;11.00;1.00;;;;;;4417145;28;660093;-66
2022/04/15 01:38:56;;;;;;;30.80;13.70;;;11.00;99.90;;;;;;4404331;28;658233;-66
2022/04/15 01:41:45;;;;;;;30.40;13.27;;;11.00;1.00;;;;;;4416429;28;660450;-66
2022/04/15 01:44:32;;;;;;;26.97;13.37;;;10.90;1.00;;;;;;4408694;28;659918;-65
2022/04/15 01:47:20;;;;;;;28.83;13.10;;;11.00;1.00;;;;;;4427426;28;659424;-66
2022/04/15 01:50:09;;;;;;;30.23;12.73;;;10.90;1.00;;;;;;4397792;28;660087;-66
2022/04/15 01:52:56;;;;;;;26.30;12.73;;;11.00;1.00;;;;;;4400034;28;658828;-66
2022/04/15 01:55:44;;;;;;;28.33;12.70;;;10.90;1.00;;;;;;4414336;28;659281;-66
2022/04/15 01:58:32;;;;;;;25.23;12.47;;;10.90;1.00;;;;;;4406053;28;658633;-65
2022/04/15 02:01:20;;;;;;;27.50;12.63;;;10.90;1.00;;;;;;4414997;28;658231;-65
2022/04/15 02:04:08;;;;;;;29.53;12.93;;;10.80;79.00;;;;;;4419405;28;659794;-65
2022/04/15 02:06:55;;;;;;;29.93;12.63;;;10.80;97.80;;;;;;4407539;28;659360;-66
2022/04/15 02:09:43;;;;;;;24.63;12.20;;;10.70;99.90;;;;;;4422243;28;660822;-66
2022/04/15 02:12:30;;;;;;;28.40;13.07;;;10.70;99.90;;;;;;4406298;28;659974;-65
2022/04/15 02:15:19;;;;;;;27.53;12.80;;;10.70;99.90;;;;;;4423794;28;660699;-66
2022/04/15 02:18:07;;;;;;;25.03;13.20;;;10.60;1.00;;;;;;4400250;28;659339;-66
2022/04/15 02:20:54;;;;;;;34.57;13.67;;;10.60;1.00;;;;;;4415234;28;659156;-66
2022/04/15 02:23:41;;;;;;;28.33;13.80;;;10.50;99.90;;;;;;4394874;28;658605;-66
2022/04/15 02:26:29;;;;;;;29.37;14.03;;;10.50;99.90;;;;;;4413283;28;660143;-66
2022/04/15 02:29:16;;;;;;;33.03;15.30;;;10.60;99.90;;;;;;4393343;28;659852;-66
2022/04/15 02:32:06;;;;;;;37.70;16.83;;;10.60;99.90;;;;;;4417532;28;660898;-65
2022/04/15 02:34:53;;;;;;;34.33;15.87;;;10.60;1.00;;;;;;4403941;28;660041;-66
2022/04/15 02:37:41;;;;;;;35.27;16.43;;;10.60;1.00;;;;;;4393722;28;659127;-66
2022/04/15 02:40:28;;;;;;;36.93;17.50;;;10.40;43.30;;;;;;4418596;28;659380;-66
2022/04/15 02:43:15;;;;;;;35.53;16.80;;;10.50;99.90;;;;;;4393072;28;659631;-65
2022/04/15 02:46:04;;;;;;;40.00;18.03;;;10.40;1.00;;;;;;4416670;28;660888;-66
2022/04/15 02:48:52;;;;;;;38.03;17.10;;;10.30;99.90;;;;;;4396545;28;658535;-66
2022/04/15 02:51:40;;;;;;;41.27;17.57;;;10.30;1.00;;;;;;4415898;28;659389;-66
2022/04/15 02:54:27;;;;;;;38.03;18.07;;;10.20;1.00;;;;;;4396181;28;659552;-66
2022/04/15 02:57:14;;;;;;;37.50;18.23;;;10.10;99.90;;;;;;4423115;28;658794;-66
2022/04/15 03:00:02;;;;;;;38.07;18.53;;;10.10;99.90;;;;;;4389998;28;659447;-66
2022/04/15 03:02:50;;;;;;;38.60;18.67;;;10.10;1.00;;;;;;4409809;28;660574;-66
2022/04/15 03:05:38;;;;;;;43.83;19.50;;;10.20;99.90;;;;;;4394357;28;659488;-66
2022/04/15 03:08:26;;;;;;;46.63;19.67;;;10.20;1.00;;;;;;4398283;28;659928;-66
2022/04/15 03:11:13;;;;;;;42.77;19.40;;;10.20;1.00;;;;;;4416327;28;658548;-66
2022/04/15 03:14:00;;;;;;;39.17;19.07;;;10.30;1.00;;;;;;4393328;28;659147;-66
2022/04/15 03:16:48;;;;;;;43.23;20.50;;;10.30;1.00;;;;;;4409499;28;659937;-66
2022/04/15 03:19:35;;;;;;;41.93;19.57;;;10.20;1.00;;;;;;4402153;28;659548;-66
2022/04/15 03:22:24;;;;;;;41.33;19.10;;;10.20;26.70;;;;;;4417642;28;659609;-66
2022/04/15 03:25:12;;;;;;;39.50;20.02;;;10.20;82.90;;;;;;4399927;28;659592;-66
2022/04/15 03:28:00;;;;;;;45.53;20.37;;;10.30;99.90;;;;;;4405347;28;659610;-66
2022/04/15 03:30:48;;;;;;;44.83;20.27;;;10.30;1.00;;;;;;4389150;28;659860;-66
2022/04/15 03:33:35;;;;;;;43.07;20.47;;;10.30;1.00;;;;;;4402373;28;658650;-66
2022/04/15 03:36:23;;;;;;;40.77;20.70;;;10.30;1.00;;;;;;4409740;28;659402;-66
2022/04/15 03:39:12;;;;;;;44.07;20.97;;;10.30;1.00;;;;;;4397395;28;659017;-66
2022/04/15 03:41:59;;;;;;;44.03;20.50;;;10.40;1.00;;;;;;4402877;28;658399;-66
2022/04/15 03:44:46;;;;;;;42.90;20.50;;;10.30;99.90;;;;;;4388076;28;658518;-66
2022/04/15 03:47:34;;;;;;;41.50;20.17;;;10.30;99.90;;;;;;4415124;28;660018;-66
2022/04/15 03:50:21;;;;;;;39.73;20.53;;;10.30;1.00;;;;;;4396317;28;660512;-66
2022/04/15 03:53:09;;;;;;;47.20;21.57;;;10.30;1.00;;;;;;4411947;28;659383;-66
2022/04/15 03:55:57;;;;;;;48.33;21.97;;;10.40;1.00;;;;;;4394098;28;658774;-66
2022/04/15 03:58:45;;;;;;;44.40;22.17;;;10.40;59.50;;;;;;4404492;28;658952;-66
2022/04/15 04:01:33;;;;;;;44.93;22.77;;;10.40;99.90;;;;;;4420910;28;660715;-66
2022/04/15 04:04:20;;;;;;;49.80;22.27;;;10.40;99.90;;;;;;4402395;28;659658;-66
2022/04/15 04:07:10;;;;;;;49.13;21.97;;;10.40;1.00;;;;;;4413114;28;660436;-66
2022/04/15 04:09:58;;;;;;;39.03;20.77;;;10.40;1.00;;;;;;4394494;28;658948;-66
2022/04/15 04:12:48;;;;;;;39.10;20.23;;;10.50;52.90;;;;;;4410277;28;659314;-66
2022/04/15 04:15:35;;;;;;;40.40;20.83;;;10.50;1.00;;;;;;4406742;28;659981;-66
2022/04/15 04:18:23;;;;;;;36.13;20.23;;;10.50;99.90;;;;;;4416973;28;659947;-65
2022/04/15 04:21:10;;;;;;;43.27;21.07;;;10.50;1.00;;;;;;4401610;28;660036;-66
2022/04/15 04:23:58;;;;;;;39.57;20.83;;;10.50;1.00;;;;;;4411223;28;658916;-66
2022/04/15 04:26:45;;;;;;;39.60;19.40;;;10.50;1.00;;;;;;4409464;28;659562;-66
2022/04/15 04:29:34;;;;;;;40.27;18.67;;;10.50;1.00;;;;;;4410623;28;659150;-66
2022/04/15 04:32:21;;;;;;;34.40;17.98;;;10.60;1.00;;;;;;4398948;28;658578;-66
2022/04/15 04:35:09;;;;;;;36.10;18.30;;;10.60;1.00;;;;;;4413234;28;659739;-66
2022/04/15 04:37:56;;;;;;;35.03;17.30;;;10.60;1.00;;;;;;4391526;28;658690;-66
2022/04/15 04:40:44;;;;;;;37.23;19.07;;;10.60;1.00;;;;;;4410918;28;659941;-66
2022/04/15 04:43:31;;;;;;;32.23;15.83;;;10.60;1.00;;;;;;4391826;28;658977;-66
2022/04/15 04:46:20;;;;;;;28.13;15.10;;;10.50;99.90;;;;;;4415360;28;659509;-66
2022/04/15 04:49:07;;;;;;;29.33;15.43;;;10.60;1.00;;;;;;4384828;28;660548;-66
2022/04/15 04:51:54;;;;;;;30.95;15.13;;;10.60;1.00;;;;;;4404319;28;658394;-66
2022/04/15 04:54:42;;;;;;;29.80;13.93;;;10.50;99.90;;;;;;4388171;28;658671;-67
2022/04/15 04:57:29;;;;;;;26.67;13.60;;;10.50;99.90;;;;;;4402844;28;659965;-66
2022/04/15 05:00:18;;;;;;;31.67;15.70;;;10.20;99.90;;;;;;4387109;28;660139;-66
2022/04/15 05:03:07;;;;;;;25.50;13.90;;;10.10;99.90;;;;;;4398522;28;659211;-67
2022/04/15 05:05:54;;;;;;;28.50;15.37;;;10.10;99.90;;;;;;4407347;28;659506;-67
2022/04/15 05:08:41;;;;;;;27.87;15.13;;;9.90;99.90;;;;;;4387483;28;659462;-66
2022/04/15 05:11:29;;;;;;;36.30;17.43;;;9.80;99.90;;;;;;4411674;28;658824;-67
2022/04/15 05:14:17;;;;;;;35.60;17.70;;;9.70;99.90;;;;;;4396487;28;658771;-67
2022/04/15 05:17:05;;;;;;;24.77;14.40;;;9.60;99.90;;;;;;4413794;28;658866;-66
2022/04/15 05:19:54;;;;;;;25.30;14.70;;;9.60;99.90;;;;;;4391164;28;660399;-66
2022/04/15 05:22:41;;;;;;;23.70;14.13;;;9.60;99.90;;;;;;4388417;28;659294;-66
2022/04/15 05:25:28;;;;;;;25.73;14.23;;;9.70;99.90;;;;;;4406992;28;658457;-66
2022/04/15 05:28:16;;;;;;;29.37;16.17;;;9.70;99.90;;;;;;4388697;28;661052;-66
2022/04/15 05:31:03;;;;;;;28.53;15.90;;;9.70;99.90;;;;;;4418335;28;659356;-66
2022/04/15 05:33:50;;;;;;;27.43;16.30;;;9.70;99.90;;;;;;4391721;28;659186;-66
2022/04/15 05:36:39;;;;;;;27.93;15.37;;;9.70;99.90;;;;;;4418870;28;659732;-66
2022/04/15 05:39:45;;;;;;;30.47;16.77;;;9.70;99.90;;;;;;4394549;28;658517;-66
2022/04/15 05:42:32;;;;;;;30.93;16.37;;;9.60;99.90;;;;;;4367884;28;659659;-66
2022/04/15 05:45:19;;;;;;;28.60;15.77;;;9.50;99.90;;;;;;4412755;28;658953;-65
2022/04/15 05:48:07;;;;;;;25.60;14.50;;;9.60;99.90;;;;;;4398592;28;658613;-65
2022/04/15 05:50:55;;;;;;;32.40;16.33;;;9.60;99.90;;;;;;4416751;28;658544;-65
2022/04/15 05:53:43;;;;;;;33.30;18.63;;;9.60;99.90;;;;;;4389221;28;659957;-65
2022/04/15 05:56:31;;;;;;;36.80;19.63;;;9.60;99.90;;;;;;4393247;28;659206;-65
2022/04/15 05:59:20;;;;;;;39.90;23.87;;;9.70;99.90;;;;;;4414537;28;659020;-66
2022/04/15 06:02:08;;;;;;;39.90;22.77;;;9.70;99.90;;;;;;4383917;28;659014;-65
2022/04/15 06:04:55;;;;;;;37.73;22.60;;;9.70;99.90;;;;;;4402260;28;658763;-65
2022/04/15 06:07:43;;;;;;;46.00;25.07;;;9.60;99.90;;;;;;4416126;28;659277;-66
2022/04/15 06:10:32;;;;;;;46.13;27.13;;;9.60;99.90;;;;;;4400376;28;658528;-65
2022/04/15 06:13:22;;;;;;;54.17;30.77;;;9.60;99.90;;;;;;4412700;28;658811;-65
2022/04/15 06:16:10;;;;;;;62.33;32.87;;;9.60;99.90;;;;;;4410294;28;658889;-66
2022/04/15 06:18:57;;;;;;;55.10;33.00;;;9.70;99.90;;;;;;4390311;28;659647;-66
2022/04/15 06:21:45;;;;;;;58.70;34.10;;;9.70;99.90;;;;;;4416556;28;658587;-65
2022/04/15 06:24:32;;;;;;;64.43;37.63;;;9.80;99.90;;;;;;4383602;28;660249;-66
2022/04/15 06:27:21;;;;;;;65.37;36.73;;;9.70;99.90;;;;;;4411797;28;658824;-66
2022/04/15 06:30:09;;;;;;;56.20;33.17;;;9.80;99.90;;;;;;4391788;28;659466;-66
2022/04/15 06:32:56;;;;;;;56.77;32.53;;;9.80;99.90;;;;;;4395088;28;658730;-65
2022/04/15 06:35:43;;;;;;;50.73;28.97;;;9.80;99.90;;;;;;4399784;28;658650;-65
2022/04/15 06:38:31;;;;;;;45.50;26.90;;;9.80;99.90;;;;;;4386277;28;659002;-66
2022/04/15 06:41:18;;;;;;;48.13;28.67;;;9.90;99.90;;;;;;4411527;28;659166;-66
2022/04/15 06:44:07;;;;;;;49.60;29.23;;;9.80;99.90;;;;;;4395648;28;658494;-65
2022/04/15 06:46:54;;;;;;;61.60;32.43;;;9.80;99.90;;;;;;4414265;28;658919;-66
2022/04/15 06:49:43;;;;;;;53.63;30.77;;;9.80;99.90;;;;;;4391355;28;659886;-66
2022/04/15 06:52:30;;;;;;;45.97;23.80;;;9.80;99.90;;;;;;4403352;28;659176;-66
2022/04/15 06:55:18;;;;;;;53.27;30.07;;;9.80;99.90;;;;;;4405150;28;659742;-65
2022/04/15 06:58:06;;;;;;;55.57;31.77;;;9.80;99.90;;;;;;4394400;28;658716;-65
2022/04/15 07:00:55;;;;;;;49.90;29.10;;;9.80;99.90;;;;;;4409868;28;659150;-65
2022/04/15 07:03:42;;;;;;;54.20;30.97;;;9.90;99.90;;;;;;4390183;28;659371;-65
2022/04/15 07:06:30;;;;;;;55.50;31.40;;;9.90;99.90;;;;;;4405756;28;657930;-66
2022/04/15 07:09:17;;;;;;;55.73;33.20;;;9.90;99.90;;;;;;4385856;28;659003;-66
2022/04/15 07:12:05;;;;;;;56.33;32.57;;;9.90;99.90;;;;;;4410894;28;658149;-65
2022/04/15 07:14:53;;;;;;;69.10;34.43;;;9.90;99.90;;;;;;4388806;28;659206;-66
2022/04/15 07:17:42;;;;;;;68.17;35.83;;;9.80;99.90;;;;;;4403992;28;658725;-66
2022/04/15 07:20:29;;;;;;;61.83;34.87;;;9.80;99.90;;;;;;4407970;28;658795;-66
2022/04/15 07:26:31;;;;;;;67.63;37.90;;;9.90;99.90;;;;;;4369672;28;658874;-65
2022/04/15 07:29:19;;;;;;;70.70;38.80;;;9.90;99.90;;;;;;4409273;28;658990;-65
2022/04/15 07:32:07;;;;;;;70.43;39.67;;;9.80;99.90;;;;;;4387945;28;658732;-65
2022/04/15 07:34:56;;;;;;;71.70;41.80;;;9.90;99.90;;;;;;4408971;28;658733;-66
2022/04/15 07:37:43;;;;;;;69.87;40.60;;;9.90;99.90;;;;;;4395795;28;659145;-66
2022/04/15 07:40:30;;;;;;;76.60;42.13;;;9.90;99.90;;;;;;4389256;28;658665;-66
2022/04/15 07:43:18;;;;;;;71.43;39.97;;;9.90;99.90;;;;;;4421114;28;658716;-66
2022/04/15 07:46:05;;;;;;;70.63;42.40;;;9.90;99.90;;;;;;4387106;28;659691;-66
2022/04/15 07:48:53;;;;;;;79.50;42.93;;;9.90;99.90;;;;;;4421838;28;659857;-66
2022/04/15 07:51:42;;;;;;;77.23;40.13;;;9.90;99.90;;;;;;4395963;28;659069;-66
2022/04/15 07:54:33;;;;;;;69.37;40.23;;;9.80;99.90;;;;;;4408232;28;658643;-66
2022/04/15 07:57:41;;;;;;;68.43;38.77;;;9.90;99.90;;;;;;4370792;28;659719;-66
2022/04/15 08:00:31;;;;;;;57.63;33.75;;;9.90;99.90;;;;;;4378883;28;659637;-66
2022/04/15 08:03:20;;;;;;;68.80;37.30;;;9.90;99.90;;;;;;4384736;28;659117;-66
2022/04/15 08:06:08;;;;;;;62.33;34.93;;;9.90;99.90;;;;;;4407542;28;659297;-66
2022/04/15 08:08:57;;;;;;;66.10;36.20;;;10.00;99.90;;;;;;4402445;28;658357;-66
2022/04/15 08:11:44;;;;;;;69.73;38.80;;;10.00;99.90;;;;;;4410443;28;659263;-66
2022/04/15 08:14:31;;;;;;;64.53;34.23;;;10.10;99.90;;;;;;4401634;28;659606;-66
2022/04/15 08:17:19;;;;;;;64.70;35.80;;;10.10;99.90;;;;;;4411099;28;661779;-66
2022/04/15 08:20:07;;;;;;;74.47;40.00;;;10.10;99.90;;;;;;4384194;28;659889;-66
2022/04/15 08:22:54;;;;;;;64.80;36.20;;;10.10;99.90;;;;;;4394101;28;659824;-66
2022/04/15 08:25:58;;;;;;;61.57;34.87;;;10.10;99.90;;;;;;4390648;28;660280;-66
2022/04/15 08:28:45;;;;;;;64.03;34.73;;;10.10;99.90;;;;;;4367819;28;659849;-66
2022/04/15 08:31:35;;;;;;;66.40;35.77;;;10.20;99.90;;;;;;4411714;28;660078;-66
2022/04/15 08:34:23;;;;;;;60.67;33.85;;;10.20;99.90;;;;;;4376580;28;660229;-66
2022/04/15 08:37:12;;;;;;;63.30;35.08;;;10.20;99.90;;;;;;4400158;28;659807;-66
2022/04/15 08:40:00;;;;;;;66.30;35.90;;;10.30;99.90;;;;;;4406427;28;659743;-65
2022/04/15 08:42:53;;;;;;;58.73;33.23;;;10.40;99.90;;;;;;4390805;28;660510;-65
2022/04/15 08:45:56;;;;;;;50.93;30.27;;;10.30;99.90;;;;;;4371507;28;659554;-66
2022/04/15 08:48:43;;;;;;;58.57;32.13;;;10.30;99.90;;;;;;4374937;28;660122;-66
2022/04/15 08:51:31;;;;;;;52.00;30.57;;;10.40;99.90;;;;;;4379763;28;660357;-66
2022/04/15 08:54:19;;;;;;;46.60;28.13;;;10.40;99.90;;;;;;4406722;28;660818;-66
2022/04/15 08:57:06;;;;;;;50.17;28.43;;;10.40;99.90;;;;;;4374164;28;659904;-66
2022/04/15 08:59:55;;;;;;;49.70;29.80;;;10.50;99.90;;;;;;4406079;28;660252;-66
2022/04/15 09:02:42;;;;;;;45.00;25.20;;;10.60;99.90;;;;;;4395231;28;660430;-66
2022/04/15 09:05:30;;;;;;;40.03;24.87;;;10.50;99.90;;;;;;4420662;28;660027;-66
2022/04/15 09:08:18;;;;;;;41.83;24.43;;;10.50;99.90;;;;;;4417375;28;660501;-66
2022/04/15 09:11:05;;;;;;;38.00;22.57;;;10.50;99.90;;;;;;4391380;28;659712;-66
2022/04/15 09:13:53;;;;;;;33.07;20.17;;;10.50;99.90;;;;;;4403325;28;660679;-67
2022/04/15 09:16:43;;;;;;;30.52;18.42;;;10.50;99.90;;;;;;4385655;28;660896;-66
2022/04/15 09:19:30;;;;;;;26.80;17.38;;;10.50;99.90;;;;;;4375458;28;660431;-66
2022/04/15 09:22:18;;;;;;;28.53;18.07;;;10.50;99.90;;;;;;4399325;28;660398;-66
2022/04/15 09:25:06;;;;;;;28.60;18.00;;;10.40;99.90;;;;;;4385477;28;659860;-67
2022/04/15 09:27:57;;;;;;;27.43;16.37;;;10.40;99.90;;;;;;4405968;28;660434;-68
2022/04/15 09:30:46;;;;;;;25.37;15.27;;;10.50;99.90;;;;;;4408452;28;660133;-67
2022/04/15 09:33:35;;;;;;;21.10;14.03;;;10.50;99.90;;;;;;4407752;28;660151;-66
2022/04/15 09:36:32;;;;;;;16.20;11.00;;;10.50;99.90;;;;;;4378777;28;660103;-66
2022/04/15 09:39:19;;;;;;;17.73;12.10;;;10.60;99.90;;;;;;4381626;28;659784;-66
2022/04/15 09:42:08;;;;;;;16.30;10.60;;;10.70;99.90;;;;;;4383846;28;660090;-66
2022/04/15 09:45:00;;;;;;;18.50;12.03;;;10.70;99.90;;;;;;4382993;28;660306;-66
2022/04/15 09:47:51;;;;;;;21.88;13.77;;;10.90;99.90;;;;;;4374365;28;660405;-66
2022/04/15 09:50:42;;;;;;;24.43;15.37;;;10.80;99.90;;;;;;4379281;28;660212;-66
2022/04/15 09:53:29;;;;;;;23.03;15.13;;;10.70;99.90;;;;;;4380291;28;660209;-66
2022/04/15 09:56:16;;;;;;;21.73;14.18;;;10.90;99.90;;;;;;4386910;28;659745;-66
2022/04/15 09:59:08;;;;;;;22.10;14.43;;;10.90;99.90;;;;;;4406902;28;660640;-66
2022/04/15 10:01:56;;;;;;;20.83;13.40;;;11.00;99.90;;;;;;4361654;28;660254;-66
2022/04/15 10:04:43;;;;;;;21.83;14.17;;;11.20;99.90;;;;;;4403128;28;659858;-66
2022/04/15 10:07:33;;;;;;;22.83;14.63;;;11.60;99.90;;;;;;4386817;28;660418;-66
2022/04/15 10:10:21;;;;;;;22.60;14.67;;;12.10;99.90;;;;;;4382822;28;659717;-66
2022/04/15 10:13:08;;;;;;;18.87;12.97;;;12.50;99.90;;;;;;4401749;28;660860;-66
2022/04/15 10:15:55;;;;;;;17.17;10.83;;;12.70;99.90;;;;;;4382917;28;661203;-66
2022/04/15 10:18:43;;;;;;;16.20;11.60;;;12.70;99.90;;;;;;4412298;28;661014;-66
2022/04/15 10:21:32;;;;;;;16.10;10.60;;;12.70;99.90;;;;;;4392423;28;659558;-66
2022/04/15 10:24:24;;;;;;;14.50;10.60;;;12.90;99.90;;;;;;4402642;28;660112;-66
2022/04/15 10:27:12;;;;;;;13.63;9.03;;;13.40;99.90;;;;;;4384951;28;660197;-66
2022/04/15 10:30:04;;;;;;;11.90;8.87;;;13.30;99.90;;;;;;4405262;28;658984;-66
2022/04/15 10:32:52;;;;;;;14.02;9.45;;;13.30;44.60;;;;;;4368486;28;658847;-66
2022/04/15 10:35:40;;;;;;;10.13;6.83;;;13.20;1.00;;;;;;4422341;28;658883;-66
2022/04/15 10:38:27;;;;;;;11.10;7.87;;;13.10;1.00;;;;;;4396514;28;658199;-66
2022/04/15 10:41:17;;;;;;;12.73;6.90;;;13.10;1.00;;;;;;4420683;28;658926;-66
2022/04/15 10:44:05;;;;;;;9.57;7.20;;;12.70;1.00;;;;;;4402039;28;657782;-66
2022/04/15 10:46:52;;;;;;;10.10;6.63;;;12.80;1.00;;;;;;4399702;28;657450;-66
2022/04/15 10:49:40;;;;;;;9.80;5.63;;;12.80;1.00;;;;;;4415011;28;657967;-66
2022/04/15 10:52:30;;;;;;;11.20;5.87;;;12.90;1.00;;;;;;4394979;28;656801;-66
2022/04/15 10:55:17;;;;;;;7.87;5.10;;;12.80;1.00;;;;;;4402430;28;657988;-66
2022/04/15 10:58:13;;;;;;;7.20;5.00;;;13.10;99.90;;;;;;4417777;28;656669;-66
2022/04/15 11:01:18;;;;;;;10.10;5.60;;;13.30;99.90;;;;;;4374947;28;658285;-66
2022/04/15 11:04:08;;;;;;;9.37;6.30;;;13.20;99.90;;;;;;4400204;28;659148;-66
2022/04/15 11:06:56;;;;;;;11.57;6.43;;;13.20;99.90;;;;;;4402695;28;658025;-66
2022/04/15 11:09:43;;;;;;;8.30;6.53;;;13.20;31.10;;;;;;4421781;28;659444;-66
2022/04/15 11:12:31;;;;;;;10.63;6.87;;;13.30;1.00;;;;;;4400571;28;657774;-66
2022/04/15 11:15:22;;;;;;;9.97;6.07;;;13.40;99.90;;;;;;4423540;28;657932;-66
2022/04/15 11:18:14;;;;;;;7.83;6.20;;;13.50;1.00;;;;;;4398267;28;657758;-66
2022/04/15 11:21:01;;;;;;;12.60;6.47;;;13.30;99.90;;;;;;4373623;28;657205;-66
2022/04/15 11:23:49;;;;;;;10.27;5.73;;;13.70;99.90;;;;;;4417349;28;659263;-66
2022/04/15 11:26:38;;;;;;;7.17;5.30;;;14.00;99.90;;;;;;4392142;28;659055;-67
2022/04/15 11:29:28;;;;;;;6.97;4.97;;;14.00;99.90;;;;;;4404790;28;657685;-66
2022/04/15 11:32:17;;;;;;;8.77;4.53;;;14.00;1.00;;;;;;4397075;28;657545;-66
2022/04/15 11:35:05;;;;;;;8.43;4.60;;;13.90;1.00;;;;;;4418708;28;656547;-66
2022/04/15 11:37:54;;;;;;;8.20;4.73;;;13.50;99.90;;;;;;4382042;28;656534;-66
2022/04/15 11:41:14;;;;;;;6.47;3.73;;;13.30;99.90;;;;;;4393411;28;658240;-66
2022/04/15 11:44:03;;;;;;;8.73;4.63;;;13.10;99.90;;;;;;4397905;28;658104;-67
2022/04/15 11:50:25;;;;;;;10.00;5.30;;;12.90;99.90;;;;;;4387550;28;657889;-66
2022/04/15 11:53:14;;;;;;;11.40;5.90;;;13.10;99.90;;;;;;4386762;28;659615;-66
2022/04/15 11:56:02;;;;;;;9.93;7.00;;;13.30;99.90;;;;;;4386575;28;658754;-67
2022/04/15 11:58:50;;;;;;;9.53;6.50;;;13.50;99.90;;;;;;4404100;28;657954;-67
2022/04/15 12:01:37;;;;;;;11.47;7.30;;;13.80;99.90;;;;;;4381747;28;657962;-67
2022/04/15 12:04:24;;;;;;;11.13;7.43;;;13.90;99.90;;;;;;4418028;28;659117;-67
2022/04/15 12:07:16;;;;;;;15.40;8.60;;;13.70;99.90;;;;;;4389851;28;658976;-66
2022/04/15 12:10:04;;;;;;;12.90;8.33;;;14.10;99.90;;;;;;4393533;28;659157;-67
2022/04/15 12:12:52;;;;;;;13.60;9.00;;;14.10;99.90;;;;;;4386738;28;658642;-67
2022/04/15 12:15:39;;;;;;;13.80;9.60;;;14.10;99.90;;;;;;4413494;28;658254;-67
2022/04/15 12:18:27;;;;;;;13.90;9.90;;;15.30;99.90;;;;;;4390483;28;658991;-67
2022/04/15 12:21:14;;;;;;;19.33;10.53;;;15.70;99.90;;;;;;4413209;28;658545;-67
2022/04/15 12:24:07;;;;;;;16.47;10.50;;;15.10;99.90;;;;;;4392765;28;660250;-66
2022/04/15 12:26:55;;;;;;;14.57;9.40;;;15.40;99.90;;;;;;4404993;28;659750;-66
2022/04/15 12:29:48;;;;;;;18.83;8.43;;;14.90;99.90;;;;;;4421373;28;659184;-67
2022/04/15 12:32:36;;;;;;;13.25;8.88;;;14.70;99.90;;;;;;4367830;28;658402;-67
2022/04/15 12:35:24;;;;;;;11.20;7.70;;;15.00;99.90;;;;;;4410618;28;659549;-67
2022/04/15 12:38:11;;;;;;;14.47;7.50;;;14.40;99.90;;;;;;4391747;28;658424;-66
2022/04/15 12:41:10;;;;;;;12.07;7.17;;;14.00;99.90;;;;;;4407916;28;658966;-66
2022/04/15 12:44:12;;;;;;;8.57;6.13;;;14.40;99.90;;;;;;4367498;28;659280;-67
2022/04/15 12:47:19;;;;;;;12.73;7.00;;;14.40;99.90;;;;;;4395430;28;657632;-67
2022/04/15 12:50:22;;;;;;;9.57;6.30;;;14.90;99.90;;;;;;4391840;28;658737;-67
2022/04/15 12:53:14;;;;;;;10.67;6.40;;;14.70;99.90;;;;;;4379010;28;658441;-67
2022/04/15 12:56:11;;;;;;;11.20;6.20;;;14.40;99.90;;;;;;4364758;28;659253;-66
2022/04/15 12:58:58;;;;;;;12.17;6.33;;;14.30;99.90;;;;;;4374022;28;659079;-67
2022/04/15 13:02:13;;;;;;;9.60;5.73;;;14.90;99.90;;;;;;4386909;28;659436;-67
2022/04/15 13:05:00;;;;;;;8.20;4.93;;;15.80;99.90;;;;;;4373140;28;658414;-67
2022/04/15 13:07:49;;;;;;;4.93;4.00;;;15.70;99.90;;;;;;4410322;28;658317;-67
2022/04/15 13:10:36;;;;;;;8.33;3.47;;;16.20;99.90;;;;;;4390048;28;657537;-67
2022/04/15 13:13:25;;;;;;;4.03;2.85;;;16.00;99.90;;;;;;4415207;28;658818;-67
2022/04/15 13:16:12;;;;;;;4.30;2.80;;;15.70;99.90;;;;;;4396405;28;658952;-67
2022/04/15 13:19:04;;;;;;;3.77;2.60;;;15.10;99.90;;;;;;4408725;28;658019;-67
2022/04/15 13:21:52;;;;;;;3.27;2.47;;;14.50;99.90;;;;;;4352710;28;658371;-67
2022/04/15 13:24:39;;;;;;;5.53;3.40;;;14.50;99.90;;;;;;4408833;28;657714;-67
2022/04/15 13:27:26;;;;;;;5.23;3.10;;;14.30;99.90;;;;;;4394215;28;657813;-67
2022/04/15 13:30:15;;;;;;;4.03;2.63;;;14.30;99.90;;;;;;4411699;28;658963;-67
2022/04/15 13:33:03;;;;;;;6.30;3.10;;;14.50;99.90;;;;;;4392345;28;658714;-67
2022/04/15 13:35:50;;;;;;;7.03;3.10;;;14.50;99.90;;;;;;4391168;28;657356;-67
2022/04/15 13:38:43;;;;;;;6.40;3.30;;;15.00;99.90;;;;;;4409671;28;658936;-67
2022/04/15 13:41:31;;;;;;;4.97;2.97;;;15.40;99.90;;;;;;4361829;28;658447;-67
2022/04/15 13:44:18;;;;;;;6.07;3.70;;;15.50;99.90;;;;;;4410414;28;658607;-67
2022/04/15 13:47:07;;;;;;;5.70;3.50;;;15.40;99.90;;;;;;4390633;28;657559;-66
2022/04/15 13:49:55;;;;;;;9.00;3.80;;;15.40;99.90;;;;;;4410397;28;657296;-67
2022/04/15 13:58:51;;;;;;;7.87;5.10;;;15.60;99.90;;;;;;4391814;28;657295;-67
2022/04/15 14:01:40;;;;;;;6.30;4.13;;;15.20;99.90;;;;;;4414289;28;658456;-67
2022/04/15 14:04:32;;;;;;;6.20;3.00;;;14.80;99.90;;;;;;4389659;28;658679;-67
2022/04/15 14:07:19;;;;;;;5.17;2.97;;;14.80;97.50;;;;;;4395989;28;657787;-67
2022/04/15 14:10:25;;;;;;;7.77;3.53;;;14.60;97.50;;;;;;4395091;28;658112;-66
2022/04/15 14:13:14;;;;;;;6.63;3.10;;;14.50;95.70;;;;;;4366137;28;657754;-67
2022/04/15 14:16:02;;;;;;;4.20;2.60;;;14.10;99.90;;;;;;4393511;28;657942;-66
2022/04/15 14:18:49;;;;;;;3.60;2.30;;;13.10;99.90;;;;;;4412692;28;657432;-66
2022/04/15 14:21:38;;;;;;;2.80;2.10;;;12.70;99.90;;;;;;4393524;28;658187;-66
2022/04/15 14:24:26;;;;;;;3.63;2.17;;;12.40;99.90;;;;;;4393119;28;658192;-66
2022/04/15 14:27:13;;;;;;;3.43;2.20;;;12.10;99.90;;;;;;4415094;28;657961;-66